createdAt,value
2022-12-11T00:03:48.369Z,8.60
2022-12-11T00:08:52.948Z,9.13
2022-12-11T00:13:57.116Z,9.10
2022-12-11T00:18:59.905Z,8.60
2022-12-11T00:24:02.655Z,8.40
2022-12-11T00:29:08.219Z,8.35
2022-12-11T00:34:12.039Z,8.43
2022-12-11T00:39:14.839Z,8.50
2022-12-11T00:44:18.961Z,8.40
2022-12-11T00:49:21.803Z,9.07
2022-12-11T00:54:24.622Z,8.95
2022-12-11T00:59:29.156Z,8.40
2022-12-11T01:04:31.975Z,8.32
2022-12-11T01:09:52.028Z,8.38
2022-12-11T01:14:56.095Z,8.65
2022-12-11T01:19:58.831Z,8.75
2022-12-11T01:25:01.594Z,7.80
2022-12-11T01:30:07.429Z,8.45
2022-12-11T01:35:12.350Z,10.30
2022-12-11T01:40:16.631Z,9.60
2022-12-11T01:45:40.008Z,9.63
2022-12-11T01:50:48.057Z,9.00
2022-12-11T01:55:54.743Z,8.70
2022-12-11T02:01:00.098Z,8.05
2022-12-11T02:06:03.444Z,8.48
2022-12-11T02:11:12.555Z,8.70
2022-12-11T02:16:25.378Z,9.10
2022-12-11T02:21:36.089Z,8.82
2022-12-11T02:26:58.476Z,9.35
2022-12-11T02:32:08.904Z,9.48
2022-12-11T02:37:17.471Z,8.85
2022-12-11T02:42:21.595Z,9.25
2022-12-11T02:47:29.271Z,9.50
2022-12-11T02:52:33.601Z,9.05
2022-12-11T02:57:41.148Z,8.45
2022-12-11T03:02:46.556Z,9.07
2022-12-11T03:07:49.610Z,9.65
2022-12-11T03:12:56.481Z,9.32
2022-12-11T03:18:07.590Z,10.10
2022-12-11T03:23:20.118Z,11.20
2022-12-11T03:28:30.334Z,10.55
2022-12-11T03:33:38.691Z,10.55
2022-12-11T03:43:46.931Z,9.98
2022-12-11T03:48:52.852Z,9.40
2022-12-11T03:53:56.996Z,10.40
2022-12-11T03:58:59.952Z,9.13
2022-12-11T04:04:04.610Z,9.70
2022-12-11T04:09:10.343Z,10.63
2022-12-11T04:14:33.400Z,9.20
2022-12-11T04:19:55.263Z,9.80
2022-12-11T04:24:58.048Z,9.73
2022-12-11T04:30:01.876Z,9.68
2022-12-11T04:35:11.155Z,9.18
2022-12-11T04:40:19.783Z,8.82
2022-12-11T04:45:22.631Z,9.30
2022-12-11T04:50:27.067Z,9.05
2022-12-11T04:55:32.784Z,9.55
2022-12-11T05:00:35.638Z,10.40
2022-12-11T05:05:39.975Z,8.98
2022-12-11T05:10:48.540Z,9.00
2022-12-11T05:15:52.858Z,12.30
2022-12-11T05:21:02.239Z,10.20
2022-12-11T05:26:08.179Z,9.10
2022-12-11T05:31:17.485Z,9.15
2022-12-11T05:36:24.870Z,9.07
2022-12-11T05:41:29.671Z,9.68
2022-12-11T05:46:32.623Z,9.02
2022-12-11T05:51:36.789Z,8.10
2022-12-11T05:56:39.602Z,8.57
2022-12-11T06:01:46.882Z,8.57
2022-12-11T06:06:51.351Z,8.35
2022-12-11T06:11:54.138Z,9.13
2022-12-11T06:16:56.912Z,8.40
2022-12-11T06:22:01.020Z,8.25
2022-12-11T06:27:03.817Z,8.05
2022-12-11T06:32:06.940Z,7.55
2022-12-11T06:37:11.772Z,6.80
2022-12-11T06:42:41.523Z,7.72
2022-12-11T06:47:44.393Z,8.10
2022-12-11T06:52:48.705Z,7.82
2022-12-11T06:57:51.530Z,7.95
2022-12-11T07:02:54.574Z,8.57
2022-12-11T07:07:59.155Z,9.30
2022-12-11T07:13:02.230Z,9.07
2022-12-11T07:18:08.122Z,9.05
2022-12-11T07:23:12.545Z,8.20
2022-12-11T07:28:16.896Z,9.27
2022-12-11T07:33:19.888Z,8.95
2022-12-11T07:38:24.857Z,8.73
2022-12-11T07:43:27.626Z,8.75
2022-12-11T07:48:34.025Z,8.52
2022-12-11T07:53:39.820Z,8.63
2022-12-11T07:58:42.727Z,8.93
2022-12-11T08:03:46.451Z,8.48
2022-12-11T08:08:50.650Z,8.00
2022-12-11T08:13:53.828Z,8.10
2022-12-11T08:18:57.576Z,7.45
2022-12-11T08:24:11.159Z,8.98
2022-12-11T08:29:14.156Z,8.38
2022-12-11T08:34:17.940Z,8.18
2022-12-11T08:39:22.517Z,8.00
2022-12-11T08:44:27.083Z,8.07
2022-12-11T08:49:34.181Z,8.82
2022-12-11T08:54:40.231Z,7.50
2022-12-11T08:59:43.093Z,8.23
2022-12-11T09:04:45.882Z,7.70
2022-12-11T09:09:50.077Z,8.27
2022-12-11T09:14:53.127Z,8.30
2022-12-11T09:19:55.990Z,8.57
2022-12-11T09:25:00.210Z,8.50
2022-12-11T09:30:03.005Z,7.65
2022-12-11T09:35:06.724Z,7.13
2022-12-11T09:40:13.306Z,8.27
2022-12-11T09:45:17.745Z,8.23
2022-12-11T09:50:24.076Z,8.52
2022-12-11T09:55:38.276Z,7.57
2022-12-11T10:00:46.911Z,9.23
2022-12-11T10:06:01.152Z,8.45
2022-12-11T10:11:23.906Z,7.20
2022-12-11T10:16:36.806Z,6.88
2022-12-11T10:21:42.424Z,7.18
2022-12-11T10:26:47.759Z,7.28
2022-12-11T10:31:54.874Z,7.05
2022-12-11T10:37:00.545Z,7.45
2022-12-11T10:42:17.434Z,7.70
2022-12-11T10:47:20.207Z,7.43
2022-12-11T10:52:25.170Z,7.07
2022-12-11T10:57:32.128Z,6.80
2022-12-11T11:02:37.583Z,7.65
2022-12-11T11:07:40.652Z,7.38
2022-12-11T11:12:47.658Z,7.32
2022-12-11T11:17:55.800Z,7.10
2022-12-11T11:23:02.800Z,7.45
2022-12-11T11:28:08.812Z,7.25
2022-12-11T11:33:15.649Z,7.88
2022-12-11T11:38:24.242Z,7.70
2022-12-11T11:43:35.352Z,7.32
2022-12-11T11:48:46.893Z,7.57
2022-12-11T11:53:51.710Z,6.65
2022-12-11T11:59:08.440Z,9.73
2022-12-11T12:04:12.875Z,9.20
2022-12-11T12:09:29.056Z,7.75
2022-12-11T12:14:54.518Z,7.53
2022-12-11T12:20:05.212Z,7.78
2022-12-11T12:25:28.151Z,7.38
2022-12-11T12:30:45.696Z,7.60
2022-12-11T12:36:18.634Z,8.25
2022-12-11T12:41:45.777Z,8.20
2022-12-11T12:47:04.792Z,7.68
2022-12-11T12:52:13.161Z,7.47
2022-12-11T12:57:18.415Z,9.15
2022-12-11T13:02:23.882Z,7.63
2022-12-11T13:07:30.706Z,7.80
2022-12-11T13:12:47.847Z,8.23
2022-12-11T13:17:53.055Z,7.90
2022-12-11T13:23:10.219Z,7.57
2022-12-11T13:28:24.911Z,7.85
2022-12-11T13:33:31.133Z,8.25
2022-12-11T13:38:37.400Z,10.25
2022-12-11T13:43:42.892Z,7.50
2022-12-11T13:48:49.876Z,8.13
2022-12-11T13:54:04.926Z,7.50
2022-12-11T13:59:22.141Z,7.93
2022-12-11T14:04:39.143Z,7.70
2022-12-11T14:09:45.418Z,8.15
2022-12-11T14:14:52.867Z,8.20
2022-12-11T14:20:02.217Z,8.18
2022-12-11T14:25:21.685Z,8.00
2022-12-11T14:30:27.251Z,7.78
2022-12-11T14:35:38.875Z,8.23
2022-12-11T14:40:48.022Z,9.75
2022-12-11T14:45:55.777Z,9.30
2022-12-11T14:51:06.112Z,9.43
2022-12-11T14:56:16.973Z,9.00
2022-12-11T15:01:25.031Z,9.23
2022-12-11T15:06:30.728Z,9.05
2022-12-11T15:11:33.867Z,9.07
2022-12-11T15:16:41.672Z,10.50
2022-12-11T15:21:46.053Z,8.57
2022-12-11T15:26:49.675Z,8.20
2022-12-11T15:32:01.454Z,8.68
2022-12-11T15:37:05.578Z,8.52
2022-12-11T15:42:08.352Z,8.65
2022-12-11T15:47:15.379Z,9.77
2022-12-11T15:52:19.485Z,10.02
2022-12-11T15:57:24.969Z,9.30
2022-12-11T16:02:28.050Z,9.88
2022-12-11T16:07:33.286Z,8.43
2022-12-11T16:12:36.062Z,9.35
2022-12-11T16:17:38.900Z,8.77
2022-12-11T16:22:43.111Z,8.10
2022-12-11T16:27:46.260Z,8.95
2022-12-11T16:32:49.120Z,10.10
2022-12-11T16:37:54.738Z,9.50
2022-12-11T16:42:58.526Z,8.70
2022-12-11T16:48:03.916Z,9.52
2022-12-11T16:53:08.018Z,9.02
2022-12-11T16:58:15.874Z,9.20
2022-12-11T17:03:19.419Z,9.60
2022-12-11T17:08:24.278Z,10.30
2022-12-11T17:13:29.566Z,8.98
2022-12-11T17:18:37.230Z,12.13
2022-12-11T17:23:41.579Z,10.48
2022-12-11T17:28:45.947Z,9.88
2022-12-11T17:33:49.626Z,10.27
2022-12-11T17:38:54.920Z,9.80
2022-12-11T17:43:57.763Z,12.38
2022-12-11T17:49:02.774Z,11.70
2022-12-11T17:54:06.978Z,12.32
2022-12-11T17:59:09.822Z,10.98
2022-12-11T18:04:12.797Z,11.90
2022-12-11T18:09:17.031Z,12.18
2022-12-11T18:14:19.824Z,12.63
2022-12-11T18:19:23.276Z,10.90
2022-12-11T18:24:31.699Z,11.30
2022-12-11T18:34:38.445Z,10.82
2022-12-11T18:39:43.028Z,11.10
2022-12-11T18:44:46.458Z,11.60
2022-12-11T18:49:49.337Z,12.00
2022-12-11T18:54:53.722Z,11.32
2022-12-11T18:59:56.574Z,10.18
2022-12-11T19:04:59.725Z,9.85
2022-12-11T19:10:04.059Z,10.35
2022-12-11T19:15:07.895Z,11.02
2022-12-11T19:20:40.391Z,11.43
2022-12-11T19:25:43.244Z,12.00
2022-12-11T19:30:47.455Z,13.20
2022-12-11T19:35:50.375Z,12.95
2022-12-11T19:40:54.797Z,13.07
2022-12-11T19:45:57.635Z,13.40
2022-12-11T19:51:05.357Z,14.20
2022-12-11T19:56:29.362Z,15.13
2022-12-11T20:07:30.650Z,15.88
2022-12-11T20:12:45.483Z,16.85
2022-12-11T20:17:57.918Z,16.58
2022-12-11T20:23:02.935Z,15.07
2022-12-11T20:34:47.846Z,16.17
2022-12-11T20:39:54.072Z,13.70
2022-12-11T20:44:59.861Z,15.38
2022-12-11T20:50:24.003Z,13.45
2022-12-11T20:55:26.970Z,13.77
2022-12-11T21:00:41.893Z,14.40
2022-12-11T21:05:48.029Z,15.65
2022-12-11T21:10:53.673Z,13.55
2022-12-11T21:16:06.370Z,14.50
2022-12-11T21:21:21.133Z,13.35
2022-12-11T21:26:24.182Z,13.60
2022-12-11T21:31:30.993Z,15.77
2022-12-11T21:36:34.017Z,15.30
2022-12-11T21:41:52.997Z,13.20
2022-12-11T21:52:27.341Z,13.75
2022-12-11T21:57:34.300Z,15.32
2022-12-11T22:02:41.344Z,13.75
2022-12-11T22:07:44.438Z,13.13
2022-12-11T22:12:47.257Z,14.02
2022-12-11T22:17:52.837Z,13.70
2022-12-11T22:22:58.828Z,13.43
2022-12-11T22:28:02.187Z,13.00
2022-12-11T22:33:06.511Z,15.82
2022-12-11T22:38:09.349Z,14.13
2022-12-11T22:43:13.058Z,13.25
2022-12-11T22:48:17.301Z,14.20
2022-12-11T22:53:20.309Z,12.88
2022-12-11T22:58:23.111Z,13.68
2022-12-11T23:03:27.417Z,14.23
2022-12-11T23:08:30.337Z,13.80
2022-12-11T23:13:33.173Z,13.77
2022-12-11T23:18:37.378Z,13.75
2022-12-11T23:23:40.821Z,14.02
2022-12-11T23:28:43.668Z,13.40
2022-12-11T23:33:47.941Z,14.48
2022-12-11T23:38:54.561Z,15.32
2022-12-11T23:43:57.964Z,15.98
2022-12-11T23:49:02.063Z,16.98
2022-12-11T23:54:04.908Z,15.93
2022-12-11T23:59:07.710Z,15.00
